Time,TemperatureF,DewpointF,PressureIn,WindDirection,WindDirectionDegrees,WindSpeedMPH,WindSpeedGustMPH,Humidity,HourlyPrecipIn,Conditions,Clouds,dailyrainin,SoftwareType,DateUTC
2013-05-11 00:07:00,68.4,61.6,29.95,South,175,0.0,0.0,79,0.00,,,0.00,Wunderground v.1.15,2013-05-11 04:07:00,
2013-05-11 00:12:00,68.5,61.7,29.95,South,175,0.0,0.0,79,0.00,,,0.00,Wunderground v.1.15,2013-05-11 04:12:00,
2013-05-11 00:17:00,68.5,61.7,29.95,South,175,0.0,0.0,79,0.00,,,0.00,Wunderground v.1.15,2013-05-11 04:17:00,
2013-05-11 00:22:00,68.5,61.4,29.95,South,175,0.0,0.0,78,0.00,,,0.00,Wunderground v.1.15,2013-05-11 04:22:00,
2013-05-11 00:28:00,68.4,61.3,29.95,South,175,0.0,0.0,78,0.00,,,0.00,Wunderground v.1.15,2013-05-11 04:28:00,
2013-05-11 00:33:00,68.3,61.5,29.95,South,175,0.0,0.0,79,0.00,,,0.00,Wunderground v.1.15,2013-05-11 04:33:00,
2013-05-11 00:38:00,68.1,61.3,29.95,South,175,0.0,0.0,79,0.00,,,0.00,Wunderground v.1.15,2013-05-11 04:38:00,
2013-05-11 00:43:00,68.1,61.3,29.96,South,175,0.0,0.0,79,0.00,,,0.00,Wunderground v.1.15,2013-05-11 04:43:00,
2013-05-11 00:49:00,67.9,61.5,29.95,South,175,0.0,0.0,80,0.00,,,0.00,Wunderground v.1.15,2013-05-11 04:49:00,
2013-05-11 00:54:00,67.7,61.3,29.96,South,175,0.0,0.0,80,0.00,,,0.00,Wunderground v.1.15,2013-05-11 04:54:00,
2013-05-11 00:59:00,67.5,61.5,29.95,South,175,0.0,0.0,81,0.00,,,0.00,Wunderground v.1.15,2013-05-11 04:59:00,
2013-05-11 01:04:00,67.3,61.3,29.95,South,175,0.0,0.0,81,0.00,,,0.00,Wunderground v.1.15,2013-05-11 05:04:00,
2013-05-11 01:09:00,67.1,61.1,29.95,South,175,1.0,1.0,81,0.00,,,0.00,Wunderground v.1.15,2013-05-11 05:09:00,
2013-05-11 01:15:00,66.9,61.2,29.95,South,175,0.0,0.0,82,0.00,,,0.00,Wunderground v.1.15,2013-05-11 05:15:00,
2013-05-11 01:21:00,66.6,60.9,29.95,South,175,0.0,0.0,82,0.00,,,0.00,Wunderground v.1.15,2013-05-11 05:21:00,
2013-05-11 01:26:00,66.5,60.8,29.95,South,175,0.0,0.0,82,0.00,,,0.00,Wunderground v.1.15,2013-05-11 05:26:00,
2013-05-11 01:31:00,66.3,60.6,29.94,South,175,0.0,1.0,82,0.00,,,0.00,Wunderground v.1.15,2013-05-11 05:31:00,
2013-05-11 01:36:00,66.3,60.6,29.94,South,175,1.0,2.0,82,0.00,,,0.00,Wunderground v.1.15,2013-05-11 05:36:00,
2013-05-11 01:42:00,66.2,60.5,29.94,South,177,2.0,2.0,82,0.00,,,0.00,Wunderground v.1.15,2013-05-11 05:42:00,
2013-05-11 01:47:00,66.2,60.5,29.94,South,177,2.0,2.0,82,0.00,,,0.00,Wunderground v.1.15,2013-05-11 05:47:00,
2013-05-11 01:52:00,66.3,60.6,29.94,South,178,2.0,2.0,82,0.00,,,0.00,Wunderground v.1.15,2013-05-11 05:52:00,
2013-05-11 01:57:00,66.4,60.7,29.93,South,178,0.0,1.0,82,0.00,,,0.00,Wunderground v.1.15,2013-05-11 05:57:00,
2013-05-11 02:03:00,66.5,60.8,29.93,South,178,0.0,0.0,82,0.00,,,0.00,Wunderground v.1.15,2013-05-11 06:03:00,
2013-05-11 02:08:00,66.4,60.7,29.93,South,178,0.0,0.0,82,0.00,,,0.00,Wunderground v.1.15,2013-05-11 06:08:00,
2013-05-11 02:13:00,66.3,60.6,29.93,South,178,0.0,0.0,82,0.00,,,0.00,Wunderground v.1.15,2013-05-11 06:13:00,
2013-05-11 02:18:00,66.1,60.4,29.93,South,178,0.0,0.0,82,0.00,,,0.00,Wunderground v.1.15,2013-05-11 06:18:00,
2013-05-11 02:23:00,65.9,60.6,29.93,South,178,0.0,0.0,83,0.00,,,0.00,Wunderground v.1.15,2013-05-11 06:23:00,
2013-05-11 02:28:00,65.9,60.6,29.92,South,178,0.0,0.0,83,0.00,,,0.00,Wunderground v.1.15,2013-05-11 06:28:00,
2013-05-11 02:33:00,65.8,60.5,29.92,South,178,0.0,0.0,83,0.00,,,0.00,Wunderground v.1.15,2013-05-11 06:33:00,
2013-05-11 02:38:00,65.7,60.4,29.93,South,178,0.0,0.0,83,0.00,,,0.00,Wunderground v.1.15,2013-05-11 06:38:00,
2013-05-11 02:43:00,65.6,60.3,29.92,South,178,0.0,0.0,83,0.00,,,0.00,Wunderground v.1.15,2013-05-11 06:43:00,
2013-05-11 02:48:00,65.5,60.5,29.92,South,178,0.0,0.0,84,0.00,,,0.00,Wunderground v.1.15,2013-05-11 06:48:00,
2013-05-11 02:53:00,65.2,60.2,29.92,South,178,0.0,0.0,84,0.00,,,0.00,Wunderground v.1.15,2013-05-11 06:53:00,
2013-05-11 02:58:00,64.8,60.2,29.92,South,178,0.0,0.0,85,0.00,,,0.00,Wunderground v.1.15,2013-05-11 06:58:00,
2013-05-11 03:03:00,64.6,60.3,29.92,South,178,0.0,0.0,86,0.00,,,0.00,Wunderground v.1.15,2013-05-11 07:03:00,
2013-05-11 03:08:00,64.5,60.2,29.92,South,178,0.0,0.0,86,0.00,,,0.00,Wunderground v.1.15,2013-05-11 07:08:00,
2013-05-11 03:13:00,64.4,60.1,29.91,South,178,0.0,0.0,86,0.00,,,0.00,Wunderground v.1.15,2013-05-11 07:13:00,
2013-05-11 03:18:00,64.4,60.1,29.91,South,178,0.0,0.0,86,0.00,,,0.00,Wunderground v.1.15,2013-05-11 07:18:00,
2013-05-11 03:23:00,64.4,60.1,29.91,South,178,0.0,0.0,86,0.00,,,0.00,Wunderground v.1.15,2013-05-11 07:23:00,
2013-05-11 03:28:00,64.3,60.0,29.91,South,178,0.0,0.0,86,0.00,,,0.00,Wunderground v.1.15,2013-05-11 07:28:00,
2013-05-11 03:34:00,64.1,60.2,29.92,South,178,0.0,0.0,87,0.00,,,0.00,Wunderground v.1.15,2013-05-11 07:34:00,
2013-05-11 03:39:00,63.9,60.0,29.92,South,178,0.0,0.0,87,0.00,,,0.00,Wunderground v.1.15,2013-05-11 07:39:00,
2013-05-11 03:44:00,63.7,60.1,29.92,South,178,0.0,0.0,88,0.00,,,0.00,Wunderground v.1.15,2013-05-11 07:44:00,
2013-05-11 03:49:00,63.7,60.1,29.91,South,178,0.0,0.0,88,0.00,,,0.00,Wunderground v.1.15,2013-05-11 07:49:00,
2013-05-11 03:54:00,63.7,60.1,29.91,South,178,0.0,0.0,88,0.00,,,0.00,Wunderground v.1.15,2013-05-11 07:54:00,
2013-05-11 03:59:00,63.8,60.2,29.91,South,178,0.0,0.0,88,0.00,,,0.00,Wunderground v.1.15,2013-05-11 07:59:00,
2013-05-11 04:04:00,64.1,60.2,29.91,South,178,4.0,6.0,87,0.00,,,0.00,Wunderground v.1.15,2013-05-11 08:04:00,
2013-05-11 04:09:00,64.3,60.3,29.91,South,179,5.0,6.0,87,0.00,,,0.00,Wunderground v.1.15,2013-05-11 08:09:00,
2013-05-11 04:14:00,64.4,60.4,29.91,South,179,2.0,5.0,87,0.00,,,0.00,Wunderground v.1.15,2013-05-11 08:14:00,
2013-05-11 04:19:00,64.4,60.4,29.91,South,179,0.0,5.0,87,0.00,,,0.00,Wunderground v.1.15,2013-05-11 08:19:00,
2013-05-11 04:24:00,64.4,60.4,29.91,South,179,4.0,5.0,87,0.00,,,0.00,Wunderground v.1.15,2013-05-11 08:24:00,
2013-05-11 04:29:00,64.4,60.4,29.91,South,179,1.0,5.0,87,0.00,,,0.00,Wunderground v.1.15,2013-05-11 08:29:00,
2013-05-11 04:34:00,64.3,60.3,29.91,South,179,1.0,2.0,87,0.00,,,0.00,Wunderground v.1.15,2013-05-11 08:34:00,
2013-05-11 04:39:00,64.3,60.3,29.91,South,179,0.0,2.0,87,0.00,,,0.00,Wunderground v.1.15,2013-05-11 08:39:00,
2013-05-11 04:44:00,64.2,60.2,29.91,South,179,0.0,1.0,87,0.00,,,0.00,Wunderground v.1.15,2013-05-11 08:44:00,
2013-05-11 04:49:00,64.1,60.2,29.90,South,179,0.0,1.0,87,0.00,,,0.00,Wunderground v.1.15,2013-05-11 08:49:00,
2013-05-11 04:54:00,64.1,60.2,29.90,South,179,0.0,0.0,87,0.00,,,0.00,Wunderground v.1.15,2013-05-11 08:54:00,
2013-05-11 04:59:00,63.8,60.2,29.91,South,179,0.0,0.0,88,0.00,,,0.00,Wunderground v.1.15,2013-05-11 08:59:00,
2013-05-11 05:04:00,63.3,60.0,29.90,South,179,2.0,4.0,89,0.00,,,0.00,Wunderground v.1.15,2013-05-11 09:04:00,
2013-05-11 05:09:00,63.0,59.7,29.90,South,179,0.0,4.0,89,0.00,,,0.00,Wunderground v.1.15,2013-05-11 09:09:00,
2013-05-11 05:14:00,62.9,59.9,29.91,South,179,0.0,1.0,90,0.00,,,0.00,Wunderground v.1.15,2013-05-11 09:14:00,
2013-05-11 05:19:00,62.8,59.8,29.90,South,179,0.0,1.0,90,0.00,,,0.00,Wunderground v.1.15,2013-05-11 09:19:00,
2013-05-11 05:24:00,62.7,59.7,29.90,South,179,0.0,0.0,90,0.00,,,0.00,Wunderground v.1.15,2013-05-11 09:24:00,
2013-05-11 05:29:00,62.7,59.7,29.90,South,179,0.0,0.0,90,0.00,,,0.00,Wunderground v.1.15,2013-05-11 09:29:00,
2013-05-11 05:34:00,62.4,59.4,29.90,South,179,0.0,0.0,90,0.00,,,0.00,Wunderground v.1.15,2013-05-11 09:34:00,
2013-05-11 05:39:00,62.0,59.3,29.90,South,179,0.0,0.0,91,0.00,,,0.00,Wunderground v.1.15,2013-05-11 09:39:00,
2013-05-11 05:44:00,61.9,59.2,29.90,South,179,0.0,0.0,91,0.00,,,0.00,Wunderground v.1.15,2013-05-11 09:44:00,
2013-05-11 05:49:00,61.7,59.0,29.90,South,179,0.0,0.0,91,0.00,,,0.00,Wunderground v.1.15,2013-05-11 09:49:00,
2013-05-11 05:54:00,61.6,59.3,29.90,South,179,0.0,0.0,92,0.00,,,0.00,Wunderground v.1.15,2013-05-11 09:54:00,
2013-05-11 05:59:00,61.6,59.3,29.90,South,179,0.0,0.0,92,0.00,,,0.00,Wunderground v.1.15,2013-05-11 09:59:00,
2013-05-11 06:04:00,61.4,58.7,29.90,South,179,0.0,0.0,91,0.00,,,0.00,Wunderground v.1.15,2013-05-11 10:04:00,
2013-05-11 06:09:00,61.0,58.7,29.90,South,179,0.0,0.0,92,0.00,,,0.00,Wunderground v.1.15,2013-05-11 10:09:00,
2013-05-11 06:14:00,60.9,58.6,29.90,South,179,0.0,0.0,92,0.00,,,0.00,Wunderground v.1.15,2013-05-11 10:14:00,
2013-05-11 06:19:00,60.8,58.5,29.90,South,179,0.0,0.0,92,0.00,,,0.00,Wunderground v.1.15,2013-05-11 10:19:00,
2013-05-11 06:24:00,60.8,58.8,29.90,South,179,0.0,0.0,93,0.00,,,0.00,Wunderground v.1.15,2013-05-11 10:24:00,
2013-05-11 06:29:00,60.9,58.9,29.90,South,179,0.0,0.0,93,0.00,,,0.00,Wunderground v.1.15,2013-05-11 10:29:00,
2013-05-11 06:35:00,61.2,59.2,29.90,South,179,0.0,0.0,93,0.00,,,0.00,Wunderground v.1.15,2013-05-11 10:35:00,
2013-05-11 06:40:00,61.4,59.4,29.90,South,179,0.0,0.0,93,0.00,,,0.00,Wunderground v.1.15,2013-05-11 10:40:00,
2013-05-11 06:45:00,61.6,59.6,29.90,SSE,151,0.0,0.0,93,0.00,,,0.00,Wunderground v.1.15,2013-05-11 10:45:00,
2013-05-11 06:50:00,61.8,59.5,29.89,SSE,151,0.0,0.0,92,0.00,,,0.00,Wunderground v.1.15,2013-05-11 10:50:00,
2013-05-11 06:55:00,61.9,59.5,29.90,SSE,151,0.0,0.0,92,0.00,,,0.00,Wunderground v.1.15,2013-05-11 10:55:00,
2013-05-11 07:00:00,61.9,59.5,29.90,SSE,151,0.0,0.0,92,0.00,,,0.00,Wunderground v.1.15,2013-05-11 11:00:00,
2013-05-11 07:05:00,62.0,59.6,29.89,SSE,151,0.0,0.0,92,0.00,,,0.00,Wunderground v.1.15,2013-05-11 11:05:00,
2013-05-11 07:10:00,62.0,59.6,29.89,SSE,151,0.0,0.0,92,0.00,,,0.00,Wunderground v.1.15,2013-05-11 11:10:00,
2013-05-11 07:15:00,61.9,59.5,29.90,SSE,151,0.0,0.0,92,0.00,,,0.00,Wunderground v.1.15,2013-05-11 11:15:00,
2013-05-11 07:20:00,61.9,59.5,29.90,South,169,0.0,0.0,92,0.00,,,0.00,Wunderground v.1.15,2013-05-11 11:20:00,
2013-05-11 07:25:00,61.9,59.5,29.90,South,169,0.0,0.0,92,0.00,,,0.00,Wunderground v.1.15,2013-05-11 11:25:00,
2013-05-11 07:30:00,61.8,59.5,29.90,South,169,0.0,0.0,92,0.00,,,0.00,Wunderground v.1.15,2013-05-11 11:30:00,
2013-05-11 07:35:00,61.6,59.3,29.90,South,169,0.0,0.0,92,0.00,,,0.00,Wunderground v.1.15,2013-05-11 11:35:00,
2013-05-11 07:40:00,61.6,59.3,29.90,South,169,0.0,0.0,92,0.00,,,0.00,Wunderground v.1.15,2013-05-11 11:40:00,
2013-05-11 07:45:00,61.8,59.5,29.91,South,169,0.0,0.0,92,0.00,,,0.00,Wunderground v.1.15,2013-05-11 11:45:00,
2013-05-11 07:50:00,62.2,59.5,29.91,NNE,13,0.0,2.0,91,0.00,,,0.00,Wunderground v.1.15,2013-05-11 11:50:00,
2013-05-11 07:55:00,62.6,59.9,29.91,North,9,0.0,0.0,91,0.00,,,0.00,Wunderground v.1.15,2013-05-11 11:55:00,
2013-05-11 08:00:00,63.2,60.2,29.91,WNW,292,0.0,4.0,90,0.00,,,0.00,Wunderground v.1.15,2013-05-11 12:00:00,
2013-05-11 08:05:00,63.7,60.4,29.91,WNW,287,0.0,5.0,89,0.00,,,0.00,Wunderground v.1.15,2013-05-11 12:05:00,
2013-05-11 08:11:00,64.3,60.7,29.90,WNW,283,4.0,5.0,88,0.00,,,0.00,Wunderground v.1.15,2013-05-11 12:11:00,
2013-05-11 08:16:00,64.8,60.8,29.91,WNW,283,0.0,4.0,87,0.00,,,0.00,Wunderground v.1.15,2013-05-11 12:16:00,
2013-05-11 08:21:00,65.2,61.2,29.91,WNW,283,0.0,5.0,87,0.00,,,0.00,Wunderground v.1.15,2013-05-11 12:21:00,
2013-05-11 08:26:00,65.6,61.3,29.91,West,263,2.0,6.0,86,0.00,,,0.00,Wunderground v.1.15,2013-05-11 12:26:00,
2013-05-11 08:31:00,65.8,61.2,29.92,West,261,0.0,6.0,85,0.00,,,0.00,Wunderground v.1.15,2013-05-11 12:31:00,
2013-05-11 08:36:00,65.9,61.3,29.92,WSW,257,1.0,3.0,85,0.00,,,0.00,Wunderground v.1.15,2013-05-11 12:36:00,
2013-05-11 08:41:00,66.0,61.4,29.91,WSW,256,0.0,3.0,85,0.00,,,0.00,Wunderground v.1.15,2013-05-11 12:41:00,
2013-05-11 08:46:00,66.3,62.0,29.91,WSW,256,0.0,3.0,86,0.00,,,0.00,Wunderground v.1.15,2013-05-11 12:46:00,
2013-05-11 08:51:00,66.7,62.0,29.91,WSW,253,0.0,3.0,85,0.00,,,0.00,Wunderground v.1.15,2013-05-11 12:51:00,
2013-05-11 08:56:00,67.4,62.7,29.91,SW,234,2.0,4.0,85,0.00,,,0.00,Wunderground v.1.15,2013-05-11 12:56:00,
2013-05-11 09:01:00,68.0,62.6,29.92,SSW,196,1.0,4.0,83,0.00,,,0.00,Wunderground v.1.15,2013-05-11 13:01:00,
2013-05-11 09:06:00,68.6,63.2,29.92,SSW,196,3.0,3.0,83,0.00,,,0.00,Wunderground v.1.15,2013-05-11 13:06:00,
2013-05-11 09:11:00,69.3,63.6,29.92,SSW,206,0.0,4.0,82,0.00,,,0.00,Wunderground v.1.15,2013-05-11 13:11:00,
2013-05-11 09:16:00,69.9,63.8,29.92,WNW,288,2.0,4.0,81,0.00,,,0.00,Wunderground v.1.15,2013-05-11 13:16:00,
2013-05-11 09:21:00,70.6,64.1,29.91,WSW,252,2.0,7.0,80,0.00,,,0.00,Wunderground v.1.15,2013-05-11 13:21:00,
2013-05-11 09:26:00,71.0,63.8,29.92,NNE,22,4.0,10.0,78,0.00,,,0.00,Wunderground v.1.15,2013-05-11 13:26:00,
2013-05-11 09:31:00,71.3,63.7,29.91,West,265,3.0,10.0,77,0.00,,,0.00,Wunderground v.1.15,2013-05-11 13:31:00,
2013-05-11 09:36:00,71.6,64.0,29.91,SW,223,2.0,4.0,77,0.00,,,0.00,Wunderground v.1.15,2013-05-11 13:36:00,
2013-05-11 09:41:00,72.1,64.9,29.91,WNW,290,1.0,4.0,78,0.00,,,0.00,Wunderground v.1.15,2013-05-11 13:41:00,
2013-05-11 09:46:00,72.5,64.5,29.92,West,279,0.0,5.0,76,0.00,,,0.00,Wunderground v.1.15,2013-05-11 13:46:00,
2013-05-11 09:51:00,72.7,64.7,29.91,NE,52,3.0,6.0,76,0.00,,,0.00,Wunderground v.1.15,2013-05-11 13:51:00,
2013-05-11 09:56:00,73.1,65.1,29.91,West,280,4.0,5.0,76,0.00,,,0.00,Wunderground v.1.15,2013-05-11 13:56:00,
2013-05-11 10:01:00,73.5,65.1,29.91,NE,42,0.0,5.0,75,0.00,,,0.00,Wunderground v.1.15,2013-05-11 14:01:00,
2013-05-11 10:06:00,73.9,65.5,29.91,West,277,5.0,5.0,75,0.00,,,0.00,Wunderground v.1.15,2013-05-11 14:06:00,
2013-05-11 10:11:00,74.1,64.9,29.91,SSW,212,2.0,8.0,73,0.00,,,0.00,Wunderground v.1.15,2013-05-11 14:11:00,
2013-05-11 10:16:00,74.2,64.6,29.91,NE,42,0.0,5.0,72,0.00,,,0.00,Wunderground v.1.15,2013-05-11 14:16:00,
2013-05-11 10:21:00,74.4,65.2,29.91,WSW,244,3.0,8.0,73,0.00,,,0.00,Wunderground v.1.15,2013-05-11 14:21:00,
2013-05-11 10:26:00,74.6,65.4,29.90,East,82,3.0,6.0,73,0.00,,,0.00,Wunderground v.1.15,2013-05-11 14:26:00,
2013-05-11 10:31:00,75.0,65.4,29.90,NE,54,0.0,6.0,72,0.00,,,0.00,Wunderground v.1.15,2013-05-11 14:31:00,
2013-05-11 10:36:00,75.4,64.9,29.91,NNW,331,0.0,7.0,70,0.00,,,0.00,Wunderground v.1.15,2013-05-11 14:36:00,
2013-05-11 10:41:00,75.7,65.6,29.91,ENE,61,2.0,8.0,71,0.00,,,0.00,Wunderground v.1.15,2013-05-11 14:41:00,
2013-05-11 10:46:00,75.6,64.7,29.91,WSW,242,2.0,5.0,69,0.00,,,0.00,Wunderground v.1.15,2013-05-11 14:46:00,
2013-05-11 10:51:00,75.7,65.2,29.91,WSW,258,3.0,5.0,70,0.00,,,0.00,Wunderground v.1.15,2013-05-11 14:51:00,
2013-05-11 10:56:00,75.8,64.5,29.90,SSW,206,6.0,8.0,68,0.00,,,0.00,Wunderground v.1.15,2013-05-11 14:56:00,
2013-05-11 11:01:00,75.9,65.4,29.90,West,264,3.0,8.0,70,0.00,,,0.00,Wunderground v.1.15,2013-05-11 15:01:00,
2013-05-11 11:06:00,76.0,64.7,29.90,West,277,4.0,7.0,68,0.00,,,0.00,Wunderground v.1.15,2013-05-11 15:06:00,
2013-05-11 11:11:00,76.1,65.2,29.91,WSW,254,5.0,10.0,69,0.00,,,0.00,Wunderground v.1.15,2013-05-11 15:11:00,
2013-05-11 11:16:00,75.9,64.2,29.91,NW,319,4.0,10.0,67,0.00,,,0.00,Wunderground v.1.15,2013-05-11 15:16:00,
2013-05-11 11:21:00,75.9,64.6,29.90,West,259,1.0,10.0,68,0.00,,,0.00,Wunderground v.1.15,2013-05-11 15:21:00,
2013-05-11 11:26:00,76.0,64.7,29.90,West,259,7.0,10.0,68,0.00,,,0.00,Wunderground v.1.15,2013-05-11 15:26:00,
2013-05-11 11:32:00,76.5,65.1,29.90,WSW,238,3.0,12.0,68,0.00,,,0.00,Wunderground v.1.15,2013-05-11 15:32:00,
2013-05-11 11:37:00,76.8,65.0,29.90,West,266,3.0,7.0,67,0.00,,,0.00,Wunderground v.1.15,2013-05-11 15:37:00,
2013-05-11 11:42:00,76.9,64.7,29.90,West,267,3.0,9.0,66,0.00,,,0.00,Wunderground v.1.15,2013-05-11 15:42:00,
2013-05-11 11:47:00,76.9,64.7,29.90,WNW,295,4.0,8.0,66,0.00,,,0.00,Wunderground v.1.15,2013-05-11 15:47:00,
2013-05-11 11:52:00,76.6,64.8,29.90,West,269,5.0,8.0,67,0.00,,,0.00,Wunderground v.1.15,2013-05-11 15:52:00,
2013-05-11 11:57:00,76.5,65.1,29.90,West,259,2.0,6.0,68,0.00,,,0.00,Wunderground v.1.15,2013-05-11 15:57:00,
2013-05-11 12:02:00,76.5,65.1,29.90,WSW,240,0.0,8.0,68,0.00,,,0.00,Wunderground v.1.15,2013-05-11 16:02:00,
2013-05-11 12:07:00,76.6,65.2,29.90,WSW,248,2.0,8.0,68,0.00,,,0.00,Wunderground v.1.15,2013-05-11 16:07:00,
2013-05-11 12:12:00,76.7,65.3,29.90,West,264,2.0,8.0,68,0.00,,,0.00,Wunderground v.1.15,2013-05-11 16:12:00,
2013-05-11 12:17:00,76.6,65.2,29.90,SW,233,4.0,5.0,68,0.00,,,0.00,Wunderground v.1.15,2013-05-11 16:17:00,
2013-05-11 12:22:00,76.5,65.6,29.90,SW,225,2.0,6.0,69,0.00,,,0.00,Wunderground v.1.15,2013-05-11 16:22:00,
2013-05-11 12:27:00,76.9,64.7,29.90,SW,234,4.0,7.0,66,0.00,,,0.00,Wunderground v.1.15,2013-05-11 16:27:00,
2013-05-11 12:32:00,77.1,64.4,29.90,WSW,256,3.0,12.0,65,0.00,,,0.00,Wunderground v.1.15,2013-05-11 16:32:00,
2013-05-11 12:37:00,77.1,64.4,29.90,SW,221,8.0,11.0,65,0.00,,,0.00,Wunderground v.1.15,2013-05-11 16:37:00,
2013-05-11 12:42:00,77.2,64.5,29.91,SW,227,5.0,11.0,65,0.00,,,0.00,Wunderground v.1.15,2013-05-11 16:42:00,
2013-05-11 12:47:00,77.3,64.6,29.91,West,272,2.0,10.0,65,0.00,,,0.00,Wunderground v.1.15,2013-05-11 16:47:00,
2013-05-11 12:52:00,77.5,64.4,29.90,SW,218,4.0,10.0,64,0.00,,,0.00,Wunderground v.1.15,2013-05-11 16:52:00,
2013-05-11 12:57:00,77.4,64.7,29.91,West,268,5.0,11.0,65,0.00,,,0.00,Wunderground v.1.15,2013-05-11 16:57:00,
2013-05-11 13:02:00,77.3,64.6,29.90,SW,228,5.0,11.0,65,0.00,,,0.00,Wunderground v.1.15,2013-05-11 17:02:00,
2013-05-11 13:07:00,77.5,64.4,29.90,WSW,248,4.0,9.0,64,0.00,,,0.00,Wunderground v.1.15,2013-05-11 17:07:00,
2013-05-11 13:12:00,77.9,65.2,29.90,WNW,289,2.0,9.0,65,0.00,,,0.00,Wunderground v.1.15,2013-05-11 17:12:00,
2013-05-11 13:17:00,78.5,65.8,29.89,NNE,28,0.0,10.0,65,0.00,,,0.00,Wunderground v.1.15,2013-05-11 17:17:00,
2013-05-11 13:22:00,78.7,65.5,29.89,West,273,4.0,10.0,64,0.00,,,0.00,Wunderground v.1.15,2013-05-11 17:22:00,
2013-05-11 13:27:00,78.3,64.7,29.89,ESE,122,0.0,6.0,63,0.00,,,0.00,Wunderground v.1.15,2013-05-11 17:27:00,
2013-05-11 13:32:00,78.1,65.4,29.89,West,263,5.0,6.0,65,0.00,,,0.00,Wunderground v.1.15,2013-05-11 17:32:00,
2013-05-11 13:37:00,77.9,65.2,29.89,WSW,242,3.0,5.0,65,0.00,,,0.00,Wunderground v.1.15,2013-05-11 17:37:00,
2013-05-11 13:42:00,77.9,65.2,29.88,WSW,240,4.0,8.0,65,0.00,,,0.00,Wunderground v.1.15,2013-05-11 17:42:00,
2013-05-11 13:47:00,78.3,65.1,29.88,SSW,197,6.0,13.0,64,0.00,,,0.00,Wunderground v.1.15,2013-05-11 17:47:00,
2013-05-11 13:52:00,78.6,65.4,29.88,WSW,244,6.0,13.0,64,0.00,,,0.00,Wunderground v.1.15,2013-05-11 17:52:00,
2013-05-11 13:57:00,78.7,64.6,29.88,NW,321,6.0,11.0,62,0.00,,,0.00,Wunderground v.1.15,2013-05-11 17:57:00,
2013-05-11 14:02:00,78.5,63.9,29.88,West,259,10.0,11.0,61,0.00,,,0.00,Wunderground v.1.15,2013-05-11 18:02:00,
2013-05-11 14:07:00,78.5,64.4,29.88,WSW,244,1.0,10.0,62,0.00,,,0.00,Wunderground v.1.15,2013-05-11 18:07:00,
2013-05-11 14:12:00,78.9,64.3,29.87,WSW,240,3.0,11.0,61,0.00,,,0.00,Wunderground v.1.15,2013-05-11 18:12:00,
2013-05-11 14:17:00,79.2,64.6,29.87,WSW,247,3.0,8.0,61,0.00,,,0.00,Wunderground v.1.15,2013-05-11 18:17:00,
2013-05-11 14:22:00,79.6,64.5,29.87,West,269,5.0,11.0,60,0.00,,,0.00,Wunderground v.1.15,2013-05-11 18:22:00,
2013-05-11 14:27:00,79.3,63.7,29.87,WSW,252,10.0,17.0,59,0.00,,,0.00,Wunderground v.1.15,2013-05-11 18:27:00,
2013-05-11 14:32:00,79.0,63.9,29.87,SW,228,7.0,17.0,60,0.00,,,0.00,Wunderground v.1.15,2013-05-11 18:32:00,
2013-05-11 14:37:00,78.8,64.7,29.87,WSW,252,3.0,11.0,62,0.00,,,0.00,Wunderground v.1.15,2013-05-11 18:37:00,
2013-05-11 14:42:00,78.9,64.3,29.87,SW,235,5.0,13.0,61,0.00,,,0.00,Wunderground v.1.15,2013-05-11 18:42:00,
2013-05-11 14:48:00,79.0,63.9,29.87,WSW,251,7.0,12.0,60,0.00,,,0.00,Wunderground v.1.15,2013-05-11 18:48:00,
2013-05-11 14:53:00,78.9,64.8,29.87,SW,222,4.0,12.0,62,0.00,,,0.00,Wunderground v.1.15,2013-05-11 18:53:00,
2013-05-11 14:58:00,79.2,64.6,29.87,WSW,238,3.0,8.0,61,0.00,,,0.00,Wunderground v.1.15,2013-05-11 18:58:00,
2013-05-11 15:03:00,79.2,64.6,29.87,SW,221,4.0,8.0,61,0.00,,,0.00,Wunderground v.1.15,2013-05-11 19:03:00,
2013-05-11 15:08:00,79.3,65.1,29.87,WSW,254,6.0,8.0,62,0.00,,,0.00,Wunderground v.1.15,2013-05-11 19:08:00,
2013-05-11 15:13:00,79.1,64.5,29.87,WSW,249,6.0,12.0,61,0.00,,,0.00,Wunderground v.1.15,2013-05-11 19:13:00,
2013-05-11 15:18:00,78.7,64.1,29.86,SW,236,2.0,13.0,61,0.00,,,0.00,Wunderground v.1.15,2013-05-11 19:18:00,
2013-05-11 15:23:00,78.7,64.1,29.86,West,269,10.0,13.0,61,0.00,,,0.00,Wunderground v.1.15,2013-05-11 19:23:00,
2013-05-11 15:28:00,78.7,64.6,29.86,SW,228,7.0,10.0,62,0.00,,,0.00,Wunderground v.1.15,2013-05-11 19:28:00,
2013-05-11 15:33:00,79.0,64.9,29.86,West,274,5.0,12.0,62,0.00,,,0.00,Wunderground v.1.15,2013-05-11 19:33:00,
2013-05-11 15:38:00,78.9,64.3,29.86,WNW,296,7.0,12.0,61,0.00,,,0.00,Wunderground v.1.15,2013-05-11 19:38:00,
2013-05-11 15:43:00,78.7,64.6,29.87,WSW,257,6.0,6.0,62,0.00,,,0.00,Wunderground v.1.15,2013-05-11 19:43:00,
2013-05-11 15:48:00,78.5,64.9,29.86,NE,46,2.0,13.0,63,0.00,,,0.00,Wunderground v.1.15,2013-05-11 19:48:00,
2013-05-11 15:53:00,78.4,64.8,29.86,WSW,248,3.0,5.0,63,0.00,,,0.00,Wunderground v.1.15,2013-05-11 19:53:00,
2013-05-11 15:58:00,78.4,64.8,29.85,SW,234,3.0,14.0,63,0.00,,,0.00,Wunderground v.1.15,2013-05-11 19:58:00,
2013-05-11 16:03:00,78.3,64.7,29.86,WSW,239,5.0,5.0,63,0.00,,,0.00,Wunderground v.1.15,2013-05-11 20:03:00,
2013-05-11 16:08:00,78.2,64.6,29.85,WSW,252,4.0,9.0,63,0.00,,,0.00,Wunderground v.1.15,2013-05-11 20:08:00,
2013-05-11 16:13:00,78.1,65.4,29.85,WNW,284,5.0,9.0,65,0.00,,,0.00,Wunderground v.1.15,2013-05-11 20:13:00,
2013-05-11 16:18:00,78.1,65.4,29.84,West,273,5.0,9.0,65,0.00,,,0.00,Wunderground v.1.15,2013-05-11 20:18:00,
2013-05-11 16:23:00,78.1,65.8,29.85,West,265,3.0,4.0,66,0.00,,,0.00,Wunderground v.1.15,2013-05-11 20:23:00,
2013-05-11 16:28:00,78.3,65.6,29.85,WSW,246,3.0,7.0,65,0.00,,,0.00,Wunderground v.1.15,2013-05-11 20:28:00,
2013-05-11 16:33:00,78.2,65.5,29.85,WNW,283,7.0,7.0,65,0.00,,,0.00,Wunderground v.1.15,2013-05-11 20:33:00,
2013-05-11 16:38:00,78.2,65.5,29.86,SW,231,3.0,7.0,65,0.00,,,0.00,Wunderground v.1.15,2013-05-11 20:38:00,
2013-05-11 16:43:00,78.2,65.5,29.85,WSW,245,4.0,4.0,65,0.00,,,0.00,Wunderground v.1.15,2013-05-11 20:43:00,
2013-05-11 16:48:00,78.0,65.3,29.85,WSW,256,3.0,10.0,65,0.00,,,0.00,Wunderground v.1.15,2013-05-11 20:48:00,
2013-05-11 16:53:00,77.8,64.6,29.84,North,10,2.0,5.0,64,0.00,,,0.00,Wunderground v.1.15,2013-05-11 20:53:00,
2013-05-11 16:58:00,77.5,64.8,29.84,West,268,5.0,12.0,65,0.00,,,0.00,Wunderground v.1.15,2013-05-11 20:58:00,
2013-05-11 17:03:00,77.4,64.7,29.85,NW,325,6.0,6.0,65,0.00,,,0.00,Wunderground v.1.15,2013-05-11 21:03:00,
2013-05-11 17:08:00,77.3,65.1,29.84,West,259,2.0,7.0,66,0.00,,,0.00,Wunderground v.1.15,2013-05-11 21:08:00,
2013-05-11 17:13:00,77.3,65.1,29.84,SW,235,5.0,5.0,66,0.00,,,0.00,Wunderground v.1.15,2013-05-11 21:13:00,
2013-05-11 17:18:00,77.2,65.4,29.84,West,265,3.0,7.0,67,0.00,,,0.00,Wunderground v.1.15,2013-05-11 21:18:00,
2013-05-11 17:23:00,77.1,66.1,29.84,West,263,0.0,3.0,69,0.00,,,0.00,Wunderground v.1.15,2013-05-11 21:23:00,
2013-05-11 17:29:00,77.0,66.0,29.84,West,261,3.0,5.0,69,0.00,,,0.00,Wunderground v.1.15,2013-05-11 21:29:00,
2013-05-11 17:34:00,76.9,66.0,29.84,WSW,257,4.0,6.0,69,0.00,,,0.00,Wunderground v.1.15,2013-05-11 21:34:00,
2013-05-11 17:39:00,76.9,66.0,29.84,WNW,284,4.0,10.0,69,0.00,,,0.00,Wunderground v.1.15,2013-05-11 21:39:00,
2013-05-11 17:44:00,76.9,66.0,29.83,SW,227,5.0,7.0,69,0.00,,,0.00,Wunderground v.1.15,2013-05-11 21:44:00,
2013-05-11 17:49:00,76.9,66.0,29.83,West,259,4.0,7.0,69,0.00,,,0.00,Wunderground v.1.15,2013-05-11 21:49:00,
2013-05-11 17:54:00,76.8,66.3,29.83,WSW,250,3.0,4.0,70,0.00,,,0.00,Wunderground v.1.15,2013-05-11 21:54:00,
2013-05-11 17:59:00,76.6,66.1,29.83,WSW,238,4.0,7.0,70,0.00,,,0.00,Wunderground v.1.15,2013-05-11 21:59:00,
2013-05-11 18:04:00,76.4,65.9,29.83,SW,218,5.0,7.0,70,0.00,,,0.00,Wunderground v.1.15,2013-05-11 22:04:00,
2013-05-11 18:09:00,76.2,65.7,29.84,SW,235,7.0,7.0,70,0.00,,,0.00,Wunderground v.1.15,2013-05-11 22:09:00,
2013-05-11 18:14:00,76.1,65.6,29.84,SW,220,4.0,6.0,70,0.00,,,0.00,Wunderground v.1.15,2013-05-11 22:14:00,
2013-05-11 18:19:00,76.0,65.5,29.83,WSW,237,3.0,6.0,70,0.00,,,0.00,Wunderground v.1.15,2013-05-11 22:19:00,
2013-05-11 18:24:00,75.9,65.8,29.83,WSW,254,3.0,6.0,71,0.00,,,0.00,Wunderground v.1.15,2013-05-11 22:24:00,
2013-05-11 18:30:00,75.7,65.6,29.83,WSW,241,5.0,6.0,71,0.00,,,0.00,Wunderground v.1.15,2013-05-11 22:30:00,
2013-05-11 18:35:00,75.6,65.1,29.83,WSW,244,5.0,7.0,70,0.00,,,0.00,Wunderground v.1.15,2013-05-11 22:35:00,
2013-05-11 18:40:00,75.6,65.5,29.83,WSW,249,5.0,7.0,71,0.00,,,0.00,Wunderground v.1.15,2013-05-11 22:40:00,
2013-05-11 18:45:00,75.5,65.4,29.84,SW,219,5.0,8.0,71,0.00,,,0.00,Wunderground v.1.15,2013-05-11 22:45:00,
2013-05-11 18:50:00,75.3,65.2,29.83,SW,224,4.0,8.0,71,0.00,,,0.00,Wunderground v.1.15,2013-05-11 22:50:00,
2013-05-11 18:55:00,75.1,65.5,29.83,WSW,246,2.0,7.0,72,0.00,,,0.00,Wunderground v.1.15,2013-05-11 22:55:00,
2013-05-11 19:00:00,75.0,65.4,29.83,WSW,254,5.0,7.0,72,0.00,,,0.00,Wunderground v.1.15,2013-05-11 23:00:00,
2013-05-11 19:05:00,74.8,65.6,29.83,WSW,237,1.0,5.0,73,0.00,,,0.00,Wunderground v.1.15,2013-05-11 23:05:00,
2013-05-11 19:10:00,74.7,65.5,29.83,SW,229,3.0,6.0,73,0.00,,,0.00,Wunderground v.1.15,2013-05-11 23:10:00,
2013-05-11 19:15:00,74.5,65.3,29.83,WSW,238,3.0,7.0,73,0.00,,,0.00,Wunderground v.1.15,2013-05-11 23:15:00,
2013-05-11 19:20:00,74.4,65.2,29.83,SW,223,3.0,7.0,73,0.00,,,0.00,Wunderground v.1.15,2013-05-11 23:20:00,
2013-05-11 19:25:00,74.3,65.5,29.82,WSW,246,1.0,6.0,74,0.00,,,0.00,Wunderground v.1.15,2013-05-11 23:25:00,
2013-05-11 19:30:00,74.2,65.4,29.82,WSW,242,4.0,6.0,74,0.00,,,0.00,Wunderground v.1.15,2013-05-11 23:30:00,
2013-05-11 19:36:00,74.0,65.2,29.82,WSW,240,3.0,4.0,74,0.00,,,0.00,Wunderground v.1.15,2013-05-11 23:36:00,
2013-05-11 19:41:00,73.9,65.1,29.82,WSW,238,2.0,4.0,74,0.00,,,0.00,Wunderground v.1.15,2013-05-11 23:41:00,
2013-05-11 19:46:00,73.8,65.4,29.82,WSW,240,1.0,4.0,75,0.00,,,0.00,Wunderground v.1.15,2013-05-11 23:46:00,
2013-05-11 19:51:00,73.6,65.2,29.83,West,264,3.0,4.0,75,0.00,,,0.00,Wunderground v.1.15,2013-05-11 23:51:00,
2013-05-11 19:56:00,73.3,65.3,29.83,SSW,193,0.0,5.0,76,0.00,,,0.00,Wunderground v.1.15,2013-05-11 23:56:00,
2013-05-11 20:01:00,73.1,65.1,29.83,WSW,240,2.0,5.0,76,0.00,,,0.00,Wunderground v.1.15,2013-05-12 00:01:00,
2013-05-11 20:06:00,72.9,65.3,29.83,SW,222,2.0,3.0,77,0.00,,,0.00,Wunderground v.1.15,2013-05-12 00:06:00,
2013-05-11 20:11:00,72.8,65.2,29.83,SW,223,3.0,4.0,77,0.00,,,0.00,Wunderground v.1.15,2013-05-12 00:11:00,
2013-05-11 20:16:00,72.6,65.3,29.83,WSW,242,2.0,4.0,78,0.00,,,0.00,Wunderground v.1.15,2013-05-12 00:16:00,
2013-05-11 20:21:00,72.5,65.2,29.83,West,260,3.0,6.0,78,0.00,,,0.00,Wunderground v.1.15,2013-05-12 00:21:00,
2013-05-11 20:26:00,72.4,65.2,29.83,SW,227,4.0,6.0,78,0.00,,,0.00,Wunderground v.1.15,2013-05-12 00:26:00,
2013-05-11 20:31:00,72.3,65.4,29.84,West,274,4.0,11.0,79,0.00,,,0.00,Wunderground v.1.15,2013-05-12 00:31:00,
2013-05-11 20:36:00,72.2,65.3,29.84,WSW,256,4.0,8.0,79,0.00,,,0.00,Wunderground v.1.15,2013-05-12 00:36:00,
2013-05-11 20:41:00,72.1,65.2,29.84,WSW,240,5.0,8.0,79,0.00,,,0.00,Wunderground v.1.15,2013-05-12 00:41:00,
2013-05-11 20:46:00,72.1,65.2,29.85,West,259,4.0,7.0,79,0.00,,,0.00,Wunderground v.1.15,2013-05-12 00:46:00,
2013-05-11 20:51:00,72.1,65.2,29.85,WSW,248,3.0,9.0,79,0.00,,,0.00,Wunderground v.1.15,2013-05-12 00:51:00,
2013-05-11 20:56:00,72.1,65.2,29.85,West,272,0.0,5.0,79,0.00,,,0.00,Wunderground v.1.15,2013-05-12 00:56:00,
2013-05-11 21:01:00,72.0,63.6,29.86,NNW,327,9.0,9.0,75,0.00,,,0.00,Wunderground v.1.15,2013-05-12 01:01:00,
2013-05-11 21:06:00,72.0,62.5,29.87,NE,45,2.0,6.0,72,0.00,,,0.00,Wunderground v.1.15,2013-05-12 01:06:00,
2013-05-11 21:11:00,71.9,61.6,29.87,North,9,2.0,9.0,70,0.00,,,0.00,Wunderground v.1.15,2013-05-12 01:11:00,
2013-05-11 21:16:00,71.5,61.2,29.87,North,5,2.0,5.0,70,0.00,,,0.00,Wunderground v.1.15,2013-05-12 01:16:00,
2013-05-11 21:21:00,71.1,61.2,29.88,WNW,296,2.0,9.0,71,0.00,,,0.00,Wunderground v.1.15,2013-05-12 01:21:00,
2013-05-11 21:26:00,70.6,61.1,29.88,NE,36,4.0,5.0,72,0.00,,,0.00,Wunderground v.1.15,2013-05-12 01:26:00,
2013-05-11 21:31:00,70.3,60.8,29.88,NNE,29,3.0,8.0,72,0.00,,,0.00,Wunderground v.1.15,2013-05-12 01:31:00,
2013-05-11 21:36:00,70.0,60.9,29.88,NE,44,0.0,2.0,73,0.00,,,0.00,Wunderground v.1.15,2013-05-12 01:36:00,
2013-05-11 21:41:00,69.8,61.1,29.88,ENE,66,0.0,7.0,74,0.00,,,0.00,Wunderground v.1.15,2013-05-12 01:41:00,
2013-05-11 21:46:00,69.3,61.0,29.88,NNW,338,1.0,9.0,75,0.00,,,0.00,Wunderground v.1.15,2013-05-12 01:46:00,
2013-05-11 21:51:00,69.0,61.1,29.88,ENE,68,4.0,9.0,76,0.00,,,0.00,Wunderground v.1.15,2013-05-12 01:51:00,
2013-05-11 21:56:00,68.3,61.2,29.87,ENE,57,2.0,6.0,78,0.00,,,0.00,Wunderground v.1.15,2013-05-12 01:56:00,
2013-05-11 22:01:00,67.9,61.5,29.87,North,10,0.0,6.0,80,0.00,,,0.00,Wunderground v.1.15,2013-05-12 02:01:00,
2013-05-11 22:06:00,67.6,61.6,29.87,North,10,0.0,2.0,81,0.00,,,0.00,Wunderground v.1.15,2013-05-12 02:06:00,
2013-05-11 22:11:00,67.4,61.7,29.87,North,10,0.0,2.0,82,0.00,,,0.00,Wunderground v.1.15,2013-05-12 02:11:00,
2013-05-11 22:16:00,67.1,62.1,29.87,North,10,0.0,0.0,84,0.00,,,0.00,Wunderground v.1.15,2013-05-12 02:16:00,
2013-05-11 22:21:00,66.8,62.1,29.87,North,10,0.0,0.0,85,0.00,,,0.00,Wunderground v.1.15,2013-05-12 02:21:00,
2013-05-11 22:26:00,66.7,62.4,29.86,North,10,0.0,0.0,86,0.00,,,0.00,Wunderground v.1.15,2013-05-12 02:26:00,
2013-05-11 22:31:00,66.5,62.5,29.87,North,10,0.0,0.0,87,0.00,,,0.00,Wunderground v.1.15,2013-05-12 02:31:00,
2013-05-11 22:36:00,66.2,62.2,29.86,North,10,0.0,0.0,87,0.00,,,0.00,Wunderground v.1.15,2013-05-12 02:36:00,
2013-05-11 22:41:00,66.0,62.3,29.86,North,10,0.0,0.0,88,0.00,,,0.00,Wunderground v.1.15,2013-05-12 02:41:00,
2013-05-11 22:46:00,65.8,62.1,29.85,North,10,0.0,0.0,88,0.00,,,0.00,Wunderground v.1.15,2013-05-12 02:46:00,
2013-05-11 22:51:00,65.8,62.5,29.86,North,10,0.0,0.0,89,0.00,,,0.00,Wunderground v.1.15,2013-05-12 02:51:00,
2013-05-11 22:56:00,65.7,62.4,29.86,North,10,0.0,0.0,89,0.00,,,0.00,Wunderground v.1.15,2013-05-12 02:56:00,
2013-05-11 23:01:00,65.5,62.2,29.86,North,10,0.0,0.0,89,0.00,,,0.00,Wunderground v.1.15,2013-05-12 03:01:00,
2013-05-11 23:06:00,65.4,62.4,29.86,North,10,0.0,0.0,90,0.00,,,0.00,Wunderground v.1.15,2013-05-12 03:06:00,
2013-05-11 23:11:00,65.3,62.3,29.87,North,10,0.0,0.0,90,0.00,,,0.00,Wunderground v.1.15,2013-05-12 03:11:00,
2013-05-11 23:17:00,65.2,62.5,29.87,NNE,33,1.0,3.0,91,0.00,,,0.00,Wunderground v.1.15,2013-05-12 03:17:00,
2013-05-11 23:22:00,65.0,62.3,29.87,NNE,33,0.0,3.0,91,0.00,,,0.00,Wunderground v.1.15,2013-05-12 03:22:00,
2013-05-11 23:27:00,64.8,62.4,29.87,NNE,33,0.0,4.0,92,0.00,,,0.00,Wunderground v.1.15,2013-05-12 03:27:00,
2013-05-11 23:32:00,64.7,62.3,29.87,NNE,33,0.0,4.0,92,0.00,,,0.00,Wunderground v.1.15,2013-05-12 03:32:00,
2013-05-11 23:37:00,64.6,62.5,29.87,NNE,33,0.0,1.0,93,0.00,,,0.00,Wunderground v.1.15,2013-05-12 03:37:00,
2013-05-11 23:42:00,64.6,62.5,29.86,NNE,33,0.0,1.0,93,0.00,,,0.00,Wunderground v.1.15,2013-05-12 03:42:00,
2013-05-11 23:46:00,64.6,62.5,29.87,NNE,33,0.0,0.0,93,0.00,,,0.00,Wunderground v.1.15,2013-05-12 03:46:00,
2013-05-11 23:47:00,77.1,73.9,29.95,WSW,257,0.0,0.0,90,0.00,,,0.00,Wunderground v.1.15,2013-05-12 03:47:00,
2013-05-11 23:48:00,77.1,73.9,29.95,WSW,257,0.0,0.0,90,0.00,,,0.00,Wunderground v.1.15,2013-05-12 03:48:00,
2013-05-11 23:49:00,77.1,73.9,29.95,WSW,257,0.0,0.0,90,0.00,,,0.00,Wunderground v.1.15,2013-05-12 03:49:00,
2013-05-11 23:50:00,77.1,73.9,29.95,WSW,257,0.0,0.0,90,0.00,,,0.00,Wunderground v.1.15,2013-05-12 03:50:00,
2013-05-11 23:51:00,77.1,73.9,29.95,WSW,257,0.0,0.0,90,0.00,,,0.00,Wunderground v.1.15,2013-05-12 03:51:00,
2013-05-11 23:52:00,64.5,62.4,29.87,NNE,33,0.0,0.0,93,0.00,,,0.00,Wunderground v.1.15,2013-05-12 03:52:00,
2013-05-11 23:53:00,77.1,73.9,29.95,WSW,257,0.0,0.0,90,0.00,,,0.00,Wunderground v.1.15,2013-05-12 03:53:00,
2013-05-11 23:54:00,77.1,73.9,29.95,WSW,257,0.0,0.0,90,0.00,,,0.00,Wunderground v.1.15,2013-05-12 03:54:00,
2013-05-11 23:55:00,77.1,73.9,29.95,WSW,257,0.0,0.0,90,0.00,,,0.00,Wunderground v.1.15,2013-05-12 03:55:00,
2013-05-11 23:56:00,77.1,73.9,29.95,WSW,257,0.0,0.0,90,0.00,,,0.00,Wunderground v.1.15,2013-05-12 03:56:00,
2013-05-11 23:57:00,64.5,62.4,29.86,NNE,33,0.0,0.0,93,0.00,,,0.00,Wunderground v.1.15,2013-05-12 03:57:00,
2013-05-11 23:58:00,77.1,73.9,29.95,WSW,257,0.0,0.0,90,0.00,,,0.00,Wunderground v.1.15,2013-05-12 03:58:00,